Platte, Nebraska
Current Conditions -  °F | °C
As of 4:53 PM on Wednesday 22 Oct 2014 (Local Time) from KHSI Reporting Station
Overcast Overcast  
Wind Chill: 62°   Ceiling: 4400
Heat Index: 62°   Visibility: 10mi
Dew Point: 58°   Wind: 7mph
Humidity: 86%   Direction: 180°S
Pressure: 29.99"   Gusts: NA
Location:  40.6115°N, 98.6672°W
Report Text: KHSI 222153Z AUTO 18006KT 10SM OVC044 17/14 A2999 RMK AO2 LTG DSNT S RAE37 SLP149 P0011 T01670144
Loading
Personal Weather Stations






























Interactive Weather Map New forecast layout! Learn more

10-Day Weather Forecast

Advertisements
Track Severe Weather on mobile